createdAt,value
2022-09-03T00:02:34.634Z,3.83
2022-09-03T00:15:45.129Z,2.35
2022-09-03T00:20:57.934Z,1.95
2022-09-03T00:26:26.789Z,5.37
2022-09-03T00:31:36.009Z,2.50
2022-09-03T00:36:45.209Z,2.17
2022-09-03T00:45:13.722Z,2.03
2022-09-03T00:50:36.131Z,6.35
2022-09-03T01:00:44.483Z,3.03
2022-09-03T01:06:17.770Z,4.70
2022-09-03T01:12:01.849Z,3.05
2022-09-03T01:18:59.958Z,1.33
2022-09-03T01:24:40.722Z,2.25
2022-09-03T01:30:00.048Z,4.72
2022-09-03T01:35:15.077Z,4.87
2022-09-03T01:40:35.227Z,4.32
2022-09-03T01:46:32.368Z,1.92
2022-09-03T01:51:34.458Z,2.95
2022-09-03T01:58:38.347Z,2.85
2022-09-03T02:03:42.173Z,2.57
2022-09-03T02:08:43.083Z,3.50
2022-09-03T02:13:48.859Z,2.80
2022-09-03T02:18:54.199Z,2.90
2022-09-03T02:23:55.268Z,4.15
2022-09-03T02:28:57.212Z,2.25
2022-09-03T02:33:58.128Z,2.25
2022-09-03T02:38:59.890Z,2.65
2022-09-03T02:44:36.264Z,4.22
2022-09-03T02:49:38.932Z,2.40
2022-09-03T02:54:40.179Z,5.50
2022-09-03T02:59:43.800Z,2.25
2022-09-03T03:04:44.702Z,2.17
2022-09-03T03:09:45.560Z,1.95
2022-09-03T03:14:46.447Z,7.28
2022-09-03T03:19:48.448Z,3.70
2022-09-03T03:24:49.745Z,2.92
2022-09-03T03:29:51.402Z,2.08
2022-09-03T03:34:52.246Z,3.45
2022-09-03T03:39:53.732Z,3.67
2022-09-03T03:44:55.004Z,3.53
2022-09-03T03:49:57.555Z,3.67
2022-09-03T03:54:58.469Z,1.83
2022-09-03T03:59:59.657Z,6.95
2022-09-03T04:05:01.039Z,2.08
2022-09-03T04:10:01.893Z,1.10
2022-09-03T04:15:03.290Z,3.92
2022-09-03T04:20:05.211Z,2.55
2022-09-03T04:25:06.523Z,2.50
2022-09-03T04:30:08.108Z,2.17
2022-09-03T04:35:09.198Z,1.37
2022-09-03T04:40:10.550Z,1.62
2022-09-03T04:45:15.040Z,2.92
2022-09-03T04:50:16.246Z,4.22
2022-09-03T04:55:18.752Z,1.95
2022-09-03T05:00:19.668Z,2.35
2022-09-03T05:05:20.552Z,3.78
2022-09-03T05:10:21.919Z,6.25
2022-09-03T05:15:22.780Z,6.35
2022-09-03T05:20:24.562Z,5.80
2022-09-03T05:25:25.383Z,5.55
2022-09-03T05:30:26.731Z,5.72
2022-09-03T05:35:30.158Z,5.87
2022-09-03T05:40:33.444Z,6.40
2022-09-03T05:45:34.294Z,4.85
2022-09-03T05:50:36.415Z,6.45
2022-09-03T05:55:37.208Z,6.43
2022-09-03T06:00:38.652Z,8.25
2022-09-03T06:05:39.464Z,8.18
2022-09-03T06:10:41.113Z,4.00
2022-09-03T06:15:42.101Z,6.03
2022-09-03T06:20:43.031Z,3.42
2022-09-03T06:25:43.814Z,3.65
2022-09-03T06:30:44.662Z,3.47
2022-09-03T06:35:46.213Z,4.50
2022-09-03T06:41:01.822Z,5.93
2022-09-03T06:46:06.098Z,1.98
2022-09-03T06:51:14.700Z,4.87
2022-09-03T06:56:18.524Z,5.10
2022-09-03T07:01:21.879Z,4.00
2022-09-03T07:06:25.015Z,3.65
2022-09-03T07:11:28.656Z,3.67
2022-09-03T07:16:36.751Z,6.20
2022-09-03T07:21:46.524Z,3.33
2022-09-03T07:26:50.060Z,5.03
2022-09-03T07:31:51.160Z,5.05
2022-09-03T07:36:53.283Z,2.97
2022-09-03T07:41:54.504Z,3.03
2022-09-03T07:46:55.895Z,3.35
2022-09-03T07:51:56.934Z,2.45
2022-09-03T07:56:58.445Z,4.53
2022-09-03T08:01:59.390Z,3.92
2022-09-03T08:07:00.236Z,4.07
2022-09-03T08:12:01.674Z,4.30
2022-09-03T08:17:02.663Z,4.00
2022-09-03T08:22:03.724Z,5.05
2022-09-03T08:27:04.658Z,3.55
2022-09-03T08:32:05.722Z,2.80
2022-09-03T08:37:09.142Z,4.00
2022-09-03T08:42:47.081Z,5.90
2022-09-03T08:47:56.195Z,6.75
2022-09-03T08:54:31.820Z,4.65
2022-09-03T08:59:33.216Z,5.47
2022-09-03T09:05:13.995Z,5.05
2022-09-03T09:10:47.212Z,5.15
2022-09-03T09:17:05.905Z,3.37
2022-09-03T09:22:40.390Z,10.25
2022-09-03T09:27:50.957Z,7.80
2022-09-03T09:32:52.259Z,3.62
2022-09-03T09:37:56.351Z,6.47
2022-09-03T09:43:30.428Z,6.30
2022-09-03T09:48:38.225Z,5.97
2022-09-03T09:53:40.545Z,4.72
2022-09-03T09:58:41.629Z,6.60
2022-09-03T10:03:57.273Z,5.62
2022-09-03T10:09:16.575Z,7.07
2022-09-03T10:14:34.544Z,4.32
2022-09-03T10:21:04.174Z,5.12
2022-09-03T10:26:16.069Z,5.07
2022-09-03T10:33:07.487Z,7.05
2022-09-03T10:40:56.227Z,9.05
2022-09-03T10:46:07.945Z,7.97
2022-09-03T10:51:27.443Z,8.07
2022-09-03T10:56:58.872Z,6.28
2022-09-03T11:04:09.969Z,7.72
2022-09-03T11:10:10.849Z,5.82
2022-09-03T11:15:27.964Z,5.85
2022-09-03T11:20:31.390Z,6.22
2022-09-03T11:25:36.437Z,5.57
2022-09-03T11:32:15.108Z,5.97
2022-09-03T11:37:27.752Z,5.05
2022-09-03T11:42:42.756Z,4.82
2022-09-03T11:47:44.826Z,4.12
2022-09-03T11:52:47.775Z,2.77
2022-09-03T11:57:48.695Z,4.32
2022-09-03T12:03:02.640Z,6.97
2022-09-03T12:10:37.514Z,5.80
2022-09-03T12:18:52.302Z,7.55
2022-09-03T12:23:58.008Z,5.57
2022-09-03T12:29:00.278Z,4.93
2022-09-03T12:34:09.429Z,6.40
2022-09-03T12:39:13.444Z,6.25
2022-09-03T12:44:14.485Z,6.70
2022-09-03T12:49:30.920Z,6.25
2022-09-03T12:54:34.214Z,6.97
2022-09-03T12:59:37.778Z,7.97
2022-09-03T13:04:39.883Z,6.93
2022-09-03T13:09:42.022Z,9.13
2022-09-03T13:14:46.424Z,8.90
2022-09-03T13:20:24.160Z,6.80
2022-09-03T13:30:48.036Z,8.85
2022-09-03T13:36:28.636Z,7.43
2022-09-03T13:41:49.445Z,8.15
2022-09-03T13:47:25.490Z,4.95
2022-09-03T13:53:04.208Z,7.37
2022-09-03T13:58:21.338Z,5.75
2022-09-03T14:03:48.106Z,6.45
2022-09-03T14:11:08.903Z,6.28
2022-09-03T14:17:41.128Z,6.47
2022-09-03T14:23:25.366Z,6.75
2022-09-03T14:28:59.013Z,8.85
2022-09-03T14:34:24.137Z,5.95
2022-09-03T14:39:51.725Z,8.98
2022-09-03T14:45:15.796Z,4.18
2022-09-03T14:50:42.356Z,6.03
2022-09-03T14:56:12.081Z,3.90
2022-09-03T15:01:28.964Z,8.18
2022-09-03T15:07:30.183Z,3.95
2022-09-03T15:12:38.362Z,3.87
2022-09-03T15:23:48.521Z,5.32
2022-09-03T15:30:17.594Z,4.35
2022-09-03T15:36:53.624Z,1.48
2022-09-03T15:42:28.450Z,11.98
2022-09-03T15:47:53.196Z,11.95
2022-09-03T15:53:35.976Z,14.32
2022-09-03T15:59:18.857Z,5.93
2022-09-03T16:04:56.965Z,4.15
2022-09-03T16:12:35.527Z,3.25
2022-09-03T16:19:39.174Z,6.47
2022-09-03T16:24:53.145Z,5.77
2022-09-03T16:30:01.634Z,4.75
2022-09-03T16:35:23.347Z,3.22
2022-09-03T16:40:52.202Z,4.68
2022-09-03T16:46:12.637Z,3.83
2022-09-03T16:51:34.317Z,5.75
2022-09-03T16:56:49.528Z,4.62
2022-09-03T17:06:12.084Z,3.97
2022-09-03T17:14:01.552Z,6.62
2022-09-03T17:20:47.247Z,3.72
2022-09-03T17:26:42.411Z,2.70
2022-09-03T17:33:36.943Z,6.87
2022-09-03T17:39:44.722Z,17.02
2022-09-03T17:44:59.990Z,13.48
2022-09-03T17:50:24.155Z,6.28
2022-09-03T17:55:36.966Z,5.20
2022-09-03T18:01:28.312Z,6.93
2022-09-03T18:06:51.757Z,4.82
2022-09-03T18:16:43.387Z,5.80
2022-09-03T18:22:06.717Z,7.43
2022-09-03T18:32:56.129Z,7.28
2022-09-03T18:38:15.958Z,13.43
2022-09-03T18:44:02.354Z,9.40
2022-09-03T18:49:48.101Z,9.38
2022-09-03T18:58:50.814Z,10.52
2022-09-03T19:07:18.678Z,9.20
2022-09-03T19:14:25.443Z,8.95
2022-09-03T19:22:03.745Z,12.13
2022-09-03T19:29:16.897Z,8.20
2022-09-03T19:36:15.635Z,10.20
2022-09-03T19:42:05.971Z,11.75
2022-09-03T19:47:27.497Z,15.98
2022-09-03T19:53:33.250Z,32.10
2022-09-03T19:58:55.993Z,26.08
2022-09-03T20:04:22.214Z,15.10
2022-09-03T20:09:47.688Z,11.35
2022-09-03T20:14:48.805Z,19.33
2022-09-03T20:20:13.786Z,14.25
2022-09-03T20:25:44.204Z,16.30
2022-09-03T20:31:47.524Z,16.33
2022-09-03T20:39:44.556Z,17.10
2022-09-03T20:44:53.742Z,10.85
2022-09-03T20:51:22.023Z,11.77
2022-09-03T20:56:36.815Z,11.35
2022-09-03T21:01:51.489Z,11.25
2022-09-03T21:10:06.779Z,10.82
2022-09-03T21:20:36.340Z,10.63
2022-09-03T21:26:14.483Z,8.82
2022-09-03T21:31:23.064Z,7.95
2022-09-03T21:36:29.618Z,5.72
2022-09-03T21:41:43.547Z,4.53
2022-09-03T21:46:58.043Z,4.65
2022-09-03T21:52:11.318Z,5.25
2022-09-03T21:58:01.575Z,9.13
2022-09-03T22:03:05.728Z,3.92
2022-09-03T22:08:44.750Z,1.75
2022-09-03T22:14:02.058Z,3.83
2022-09-03T22:19:08.186Z,1.45
2022-09-03T22:24:32.539Z,3.30
2022-09-03T22:29:45.995Z,6.90
2022-09-03T22:35:22.723Z,3.03
2022-09-03T22:45:48.592Z,9.82
2022-09-03T22:50:58.118Z,3.45
2022-09-03T22:56:14.256Z,3.70
2022-09-03T23:01:24.598Z,7.55
2022-09-03T23:06:33.346Z,10.68
2022-09-03T23:11:52.471Z,4.75
2022-09-03T23:16:59.657Z,5.22
2022-09-03T23:22:04.775Z,6.70
2022-09-03T23:27:13.332Z,4.85
2022-09-03T23:32:14.418Z,8.00
2022-09-03T23:40:23.302Z,11.85
2022-09-03T23:46:33.817Z,12.18
2022-09-03T23:54:24.847Z,5.78
